Date,TemperatureHighF,TemperatureAvgF,TemperatureLowF,DewpointHighF,DewpointAvgF,DewpointLowF,HumidityHigh,HumidityAvg,HumidityLow,PressureMaxIn,PressureMinIn,WindSpeedMaxMPH,WindSpeedAvgMPH,GustSpeedMaxMPH,PrecipitationSumIn
2013-1-1,26,18,12,15,8,2,78,66,51,29.93,29.82,6,1,6,0.00
2013-1-2,32,22,14,12,5,-1,60,49,32,30.06,29.92,7,1,7,0.00
2013-1-3,33,20,9,9,2,-3,59,47,33,30.07,29.97,5,0,5,0.00
2013-1-4,42,28,20,17,8,2,53,43,29,30.00,29.87,4,0,4,0.00
2013-1-5,36,26,20,15,9,4,60,50,40,30.07,29.89,6,1,6,0.00
2013-1-6,46,33,20,14,6,0,51,34,22,30.06,29.80,3,0,3,0.00
2013-1-7,50,38,30,15,9,6,37,30,20,29.87,29.69,6,0,6,0.00
2013-1-8,48,40,34,20,14,4,43,35,23,30.04,29.68,16,3,16,0.00
2013-1-9,52,38,29,20,15,12,50,39,28,30.10,29.86,8,1,8,0.00
2013-1-10,50,38,29,19,12,8,43,35,27,29.86,29.40,6,1,6,0.00
2013-1-11,37,27,10,22,9,-4,73,48,21,29.63,29.26,17,2,17,0.00
2013-1-12,16,9,4,6,1,-4,74,69,63,29.79,29.63,6,0,6,0.00
2013-1-13,16,8,2,6,0,-6,70,68,62,29.88,29.77,5,0,5,0.00
2013-1-14,13,6,1,2,-3,-8,69,66,60,29.91,29.82,4,0,4,0.00
2013-1-15,32,20,2,16,6,-7,67,55,40,29.94,29.83,3,0,3,0.00
2013-1-16,48,36,26,27,18,14,61,50,37,30.16,29.94,5,0,5,0.00
2013-1-17,47,34,25,24,16,10,61,50,34,30.23,30.03,5,0,5,0.00
2013-1-18,52,44,31,11,6,2,42,21,14,30.03,29.90,24,5,24,0.00
2013-1-19,52,42,32,12,5,-1,32,21,17,30.07,29.93,13,1,13,0.00
2013-1-20,49,34,23,13,8,5,55,35,22,30.07,29.95,9,1,9,0.00
2013-1-21,51,37,21,19,9,-6,64,36,12,30.02,29.89,13,2,13,0.00
2013-1-22,58,48,40,6,-2,-9,22,12,5,30.00,29.86,23,3,23,0.00
2013-1-23,62,51,41,6,-1,-12,18,11,5,30.03,29.98,10,1,10,0.00
2013-1-24,56,46,39,21,6,-3,45,21,11,29.99,29.85,7,1,7,0.00
2013-1-25,50,40,34,27,22,18,57,47,39,30.00,29.93,4,0,4,0.00
2013-1-26,53,42,34,31,26,21,68,53,37,29.93,29.66,5,1,5,0.00
2013-1-27,54,43,35,36,26,17,75,54,26,29.69,29.62,9,1,9,0.00
2013-1-28,48,35,25,28,22,16,82,58,38,29.64,29.50,10,1,10,0.00
2013-1-29,31,24,14,20,11,0,80,58,31,29.76,29.56,9,1,9,0.00
2013-1-30,36,27,12,15,8,-1,58,45,31,29.76,29.63,20,3,20,0.00
2013-1-31,42,34,24,24,17,12,70,51,36,29.95,29.71,13,2,13,0.00
2013-2-1,45,34,25,24,16,13,66,49,31,30.01,29.88,12,2,12,0.00
2013-2-2,53,37,25,23,15,8,66,45,18,30.11,30.01,14,2,14,0.00
2013-2-3,53,40,29,19,10,-1,49,32,12,30.07,29.77,10,1,10,0.00
2013-2-4,54,42,32,14,8,2,33,25,14,29.83,29.72,19,3,19,0.00
2013-2-5,53,43,32,20,16,9,42,33,28,29.91,29.74,11,1,11,0.00
2013-2-6,53,42,31,28,22,17,76,47,30,29.93,29.71,8,1,8,0.00
2013-2-7,43,33,24,27,17,9,77,54,31,29.99,29.87,8,1,8,0.00
2013-2-8,47,34,24,12,5,2,43,30,17,29.87,29.61,9,1,9,0.00
2013-2-9,38,31,25,24,15,3,77,55,32,29.61,29.46,7,1,7,0.00
2013-2-10,34,28,20,21,12,5,77,52,31,29.86,29.48,14,2,14,0.00
2013-2-11,27,21,16,16,12,8,73,68,62,29.87,29.79,6,0,6,0.00
2013-2-12,38,26,14,16,6,0,73,46,24,29.87,29.83,8,1,8,0.00
2013-2-13,44,33,22,15,10,4,51,38,28,29.87,29.75,17,2,17,0.00
2013-2-14,35,26,20,20,15,10,73,62,43,30.07,29.84,10,1,10,0.00
2013-2-15,38,27,16,24,11,2,74,55,24,30.07,30.00,12,2,12,0.00
2013-2-16,53,42,23,17,12,6,63,31,20,30.00,29.83,23,4,23,0.00
2013-2-17,58,42,32,13,6,-1,42,24,11,29.83,29.52,15,2,15,0.00
2013-2-18,38,30,20,17,6,-1,64,38,21,29.90,29.65,12,2,12,0.00
2013-2-19,38,28,18,14,7,1,50,42,31,29.91,29.66,5,1,5,0.00
2013-2-20,37,26,19,21,14,8,79,61,42,29.66,29.53,7,1,7,0.00
2013-2-21,29,22,15,20,15,9,81,74,65,29.72,29.57,5,1,5,0.00
2013-2-22,31,23,15,20,14,9,78,70,60,29.78,29.67,7,1,7,0.00
2013-2-23,38,28,16,22,15,8,74,59,47,29.69,29.52,7,1,7,0.00
2013-2-24,30,27,22,22,20,15,82,76,68,29.91,29.61,10,1,10,0.00
2013-2-25,33,24,12,19,13,6,79,65,51,29.90,29.68,6,1,6,0.00
2013-2-26,35,28,20,26,16,9,79,62,47,29.94,29.65,11,1,11,0.00
2013-2-27,36,24,15,14,9,3,65,53,38,30.02,29.94,8,1,8,0.00
2013-2-28,43,30,16,16,10,3,62,44,30,30.03,29.97,9,1,9,0.00
2013-3-1,46,35,24,23,17,7,59,49,32,30.11,30.01,8,1,8,0.00
2013-3-2,56,45,33,30,25,19,60,46,30,30.11,29.90,10,2,10,0.00
2013-3-3,59,47,40,28,24,20,53,41,25,29.90,29.57,20,3,20,0.00
2013-3-4,44,30,19,29,19,6,77,66,44,30.00,29.59,13,2,13,0.00
2013-3-5,35,25,12,18,12,5,76,61,39,30.04,29.94,9,1,9,0.00
2013-3-6,52,38,23,29,22,15,72,55,29,29.95,29.74,8,1,8,0.00
2013-3-7,60,46,35,31,23,18,54,42,29,29.85,29.74,8,1,8,0.00
2013-3-8,47,37,30,30,25,19,75,62,49,29.84,29.59,5,1,5,0.00
2013-3-9,36,32,27,30,25,12,86,74,53,29.92,29.55,11,1,11,0.00
2013-3-10,44,32,17,23,17,8,70,54,42,29.94,29.86,9,1,9,0.00
2013-3-11,49,39,30,27,21,16,79,50,32,29.97,29.77,19,3,19,0.00
2013-3-12,33,28,24,24,22,19,83,78,69,30.10,29.97,5,1,5,0.00
2013-3-13,58,44,28,37,30,24,84,60,33,30.10,29.99,10,2,10,0.00
2013-3-14,66,54,42,31,24,16,45,32,16,30.14,30.00,13,2,13,0.00
2013-3-15,73,59,47,30,22,17,41,25,16,30.00,29.79,15,2,15,0.00
2013-3-16,51,44,36,33,28,23,64,54,36,29.90,29.72,8,1,8,0.00
2013-3-17,54,41,32,31,22,4,62,47,28,29.72,29.49,14,3,14,0.00
2013-3-18,44,37,26,17,7,-3,42,29,22,29.79,29.71,21,3,21,0.00
2013-3-19,49,40,26,11,-2,-12,52,19,6,30.14,29.79,22,4,22,0.00
2013-3-20,52,35,20,22,16,9,69,49,28,30.13,29.65,8,1,8,0.00
2013-3-21,56,41,29,36,20,3,73,43,23,29.70,29.49,19,2,19,0.00
2013-3-22,43,30,23,25,16,5,83,57,37,29.77,29.62,10,1,10,0.00
2013-3-23,26,20,13,20,14,6,83,75,67,29.96,29.75,6,1,6,0.00
2013-3-24,29,20,8,16,10,2,74,65,50,29.98,29.87,6,1,6,0.00
2013-3-25,30,22,12,17,11,5,76,64,48,30.02,29.97,8,1,8,0.00
2013-3-26,45,33,18,29,20,9,71,60,43,29.99,29.79,8,1,8,0.00
2013-3-27,50,40,30,36,29,22,76,65,50,29.95,29.86,6,1,6,0.00
2013-3-28,62,46,33,37,30,25,77,56,32,30.00,29.92,9,1,9,0.00
2013-3-29,61,48,39,36,30,26,64,50,32,30.00,29.93,16,2,16,0.00
2013-3-30,64,49,38,36,29,20,79,49,20,30.07,29.91,12,3,12,0.00
2013-3-31,65,49,32,36,26,11,81,48,14,30.05,29.84,14,2,14,0.00
2013-4-1,48,40,29,32,27,20,79,61,42,30.01,29.90,8,1,8,0.00
2013-4-2,39,36,35,34,31,29,87,82,76,29.97,29.91,7,0,7,0.00
2013-4-3,55,45,34,44,35,30,89,70,49,30.01,29.92,9,1,9,0.00
2013-4-4,65,52,36,38,31,25,75,48,25,30.02,29.89,10,2,10,0.00
2013-4-5,70,56,45,37,28,23,69,36,19,29.89,29.65,17,3,17,0.00
2013-4-6,70,52,38,43,24,16,45,35,25,29.94,29.76,12,2,12,0.02
2013-4-7,67,52,38,32,27,22,70,41,22,29.91,29.75,13,2,13,0.00
2013-4-8,59,45,28,33,29,22,86,55,33,29.83,29.55,21,3,21,0.01
2013-4-9,28,20,12,24,14,6,84,77,72,30.10,29.81,8,2,8,0.00
2013-4-10,28,19,7,19,12,1,78,73,61,30.07,29.86,5,0,5,0.16
2013-4-11,53,38,20,34,27,14,84,65,42,29.92,29.73,16,1,16,0.04
2013-4-12,56,42,35,36,30,26,76,62,31,29.99,29.88,13,2,13,0.00
2013-4-13,63,47,30,35,29,23,80,54,23,29.96,29.52,12,2,12,0.03
2013-4-14,45,40,34,35,14,4,79,37,20,29.77,29.57,18,4,18,0.07
2013-4-15,38,28,23,26,20,14,82,73,40,29.98,29.75,8,1,8,0.01
2013-4-16,33,28,23,27,22,18,86,80,73,29.99,29.85,4,0,4,0.01
2013-4-17,32,26,19,26,21,14,91,82,71,30.08,29.91,8,1,8,0.00
2013-4-18,34,25,12,21,16,8,83,69,54,30.10,30.02,8,1,8,0.09
2013-4-19,46,36,21,28,23,14,75,61,42,30.07,29.96,10,1,10,0.00
2013-4-20,50,42,32,35,29,24,74,61,43,30.03,29.91,8,1,8,0.00
2013-4-21,60,46,33,36,28,25,78,52,29,30.07,29.99,13,1,13,0.00
2013-4-22,48,33,22,38,26,18,85,76,49,30.23,29.92,8,1,8,0.01
2013-4-23,30,24,18,20,17,13,84,73,61,30.18,30.07,6,1,6,0.35
2013-4-24,48,35,21,28,20,15,79,57,29,30.18,30.07,11,2,11,0.06
2013-4-25,55,43,29,33,24,16,62,49,32,30.14,29.96,6,1,6,0.00
2013-4-26,61,50,37,34,24,19,58,39,21,30.22,30.04,10,1,10,0.00
2013-4-27,71,58,40,26,20,13,48,25,13,30.21,30.07,12,2,12,0.00
2013-4-28,74,65,54,30,24,18,34,22,16,30.07,29.92,17,3,17,0.00
2013-4-29,77,64,44,39,28,19,60,30,13,30.00,29.72,10,2,10,0.00
2013-4-30,59,49,34,40,32,24,84,55,29,30.02,29.73,10,2,10,0.31
2013-5-1,35,30,24,30,26,19,89,83,75,30.48,30.02,0,0,0,0.17
2013-5-2,41,34,22,29,24,17,81,66,53,30.53,30.34,6,1,6,0.59
2013-5-3,54,42,27,33,28,21,80,59,39,30.34,30.10,7,1,9,0.00
2013-5-4,56,46,34,36,29,24,70,54,42,30.21,30.09,10,1,10,0.00
2013-5-5,57,46,33,31,26,20,62,48,33,30.21,30.09,8,1,8,0.00
2013-5-6,63,52,38,39,33,30,73,50,32,30.10,29.96,8,1,8,0.00
2013-5-7,70,54,43,47,37,29,83,56,31,30.05,29.95,10,2,10,0.26
2013-5-8,65,49,41,48,41,34,88,73,40,30.12,29.99,17,2,17,0.28
2013-5-9,56,48,42,46,41,36,89,78,61,30.20,30.10,16,1,16,0.10
2013-5-10,64,52,38,49,39,33,85,63,43,30.32,30.17,10,1,10,0.05
2013-5-11,64,53,40,46,38,32,76,58,43,30.37,30.22,8,1,8,0.02
2013-5-12,75,63,45,41,36,33,67,39,25,30.24,30.15,10,2,10,0.00
2013-5-13,83,70,57,44,37,31,45,31,18,30.21,30.10,11,2,11,0.00
2013-5-14,88,71,58,52,37,33,44,30,19,30.11,30.00,20,3,20,0.05
2013-5-15,79,65,54,46,38,32,66,39,22,30.06,29.98,12,2,12,0.00
2013-5-16,80,65,51,49,40,33,68,43,20,30.02,29.89,14,2,14,0.00
2013-5-17,83,68,50,46,34,16,62,33,13,29.98,29.86,10,2,10,0.00
2013-5-18,75,65,52,43,29,16,61,28,15,29.97,29.85,16,3,16,0.04
2013-5-19,71,59,50,34,28,25,51,32,21,29.92,29.84,14,3,14,0.00
2013-5-20,67,55,46,45,35,26,69,48,30,30.05,29.91,12,2,12,0.01
2013-5-21,70,55,39,39,31,25,75,44,21,30.07,29.93,17,2,17,0.00
2013-5-22,72,58,42,45,37,28,73,46,30,30.12,29.96,10,2,10,0.01
2013-5-23,67,55,46,49,44,40,84,68,50,30.13,30.02,7,1,7,0.00
2013-5-24,78,63,45,51,43,34,85,52,24,30.06,29.99,9,1,9,0.01
2013-5-25,84,69,50,54,42,24,76,42,13,30.06,29.96,8,1,8,0.00
2013-5-26,85,69,56,41,32,21,42,27,8,30.02,29.95,13,2,13,0.00
2013-5-27,84,68,53,37,25,17,40,21,10,29.95,29.83,12,2,12,0.00
2013-5-28,77,64,49,45,34,24,50,35,19,29.91,29.70,10,2,10,0.00
2013-5-29,60,53,46,47,40,30,86,62,40,29.80,29.72,15,2,15,0.34
2013-5-30,69,57,47,36,28,18,53,34,16,29.93,29.75,19,4,19,0.01
2013-5-31,67,58,46,26,19,11,38,23,13,30.06,29.89,20,4,20,0.00
2013-6-1,71,59,49,40,32,19,45,37,23,30.24,30.05,12,2,12,0.00
2013-6-2,76,61,41,40,34,26,59,38,24,30.23,29.92,8,1,8,0.00
2013-6-3,91,72,53,40,30,25,40,23,10,30.01,29.87,15,2,15,0.00
2013-6-4,70,60,50,47,39,24,66,48,25,30.23,30.00,15,2,15,0.00
2013-6-5,60,51,45,47,41,38,79,70,59,30.23,30.14,7,1,7,0.01
2013-6-6,76,61,42,50,40,36,83,51,28,30.18,30.09,13,2,13,0.00
2013-6-7,80,65,50,52,41,34,58,42,29,30.17,29.90,7,1,7,0.01
2013-6-8,80,68,56,50,41,34,50,39,31,30.11,29.86,12,2,12,0.00
2013-6-9,84,69,49,46,38,32,64,36,19,30.10,30.02,11,2,11,0.00
2013-6-10,100,80,62,45,34,27,36,21,7,30.05,29.96,15,2,15,0.00
2013-6-11,98,80,64,39,28,18,30,15,5,30.07,29.93,13,3,13,0.00
2013-6-12,88,76,58,50,30,20,51,21,13,30.20,30.07,11,2,11,0.00
2013-6-13,81,68,55,56,50,44,81,55,34,30.20,30.00,8,1,8,0.00
2013-6-14,94,74,58,46,38,26,55,31,6,30.08,29.99,12,2,12,0.00
2013-6-15,79,69,53,49,45,39,62,44,33,30.15,30.06,11,2,11,0.00
2013-6-16,83,68,55,53,45,34,71,46,26,30.23,30.12,13,2,13,0.02
2013-6-17,77,66,53,52,44,33,62,45,35,30.22,30.11,12,2,12,0.00
2013-6-18,80,66,52,54,48,42,79,57,28,30.18,29.99,9,2,9,0.06
2013-6-19,88,72,49,54,39,14,81,40,8,30.08,29.82,11,2,11,0.00
2013-6-20,84,74,57,45,27,12,34,19,10,30.02,29.88,10,2,10,0.00
2013-6-21,90,76,56,52,37,18,48,28,7,30.02,29.91,10,2,10,0.00
2013-6-22,82,70,54,49,41,20,56,38,11,30.05,29.87,13,2,13,0.00
2013-6-23,79,67,52,51,43,36,56,43,29,30.10,29.94,11,2,11,0.00
2013-6-24,90,74,56,48,34,18,56,29,6,30.02,29.88,14,2,14,0.00
2013-6-25,90,77,60,36,31,22,30,19,15,30.11,29.92,9,2,9,0.00
2013-6-26,95,80,60,44,34,29,35,21,11,30.18,30.10,11,2,11,0.00
2013-6-27,93,82,67,42,36,30,35,21,12,30.31,30.17,13,2,13,0.00
2013-6-28,88,75,59,60,49,39,86,43,26,30.33,30.21,14,2,14,0.32
2013-6-29,81,70,55,60,54,51,89,61,38,30.30,30.18,12,1,12,0.01
2013-6-30,76,67,61,58,54,50,76,62,48,30.26,30.21,9,1,9,0.03
2013-7-1,77,66,54,55,51,48,81,60,43,30.33,30.24,12,2,12,0.00
2013-7-2,79,68,53,56,48,42,78,52,34,30.31,30.19,10,1,10,0.00
2013-7-3,85,71,54,50,45,40,66,42,26,30.20,30.02,13,2,13,0.00
2013-7-4,90,76,63,49,44,39,44,33,22,30.08,30.02,11,2,11,0.00
2013-7-5,87,74,64,54,48,42,52,41,30,30.04,29.97,10,2,10,0.00
2013-7-6,92,76,59,53,48,42,78,39,19,30.09,29.97,15,2,15,0.07
2013-7-7,88,74,61,58,51,46,71,45,28,30.15,30.07,14,2,14,0.04
2013-7-8,91,76,63,56,47,36,66,39,22,30.19,30.11,19,2,20,0.00
2013-7-9,94,80,65,49,41,35,39,26,15,30.28,30.19,12,2,12,0.00
2013-7-10,85,74,60,58,49,38,60,43,29,30.30,30.11,9,2,9,0.01
2013-7-11,93,79,59,56,50,40,67,40,18,30.18,29.98,12,2,12,0.00
2013-7-12,91,75,66,59,51,44,72,46,26,30.16,30.03,10,2,10,0.06
2013-7-13,87,72,60,63,56,54,78,60,34,30.25,30.13,11,1,11,0.05
2013-7-14,80,69,58,60,56,50,82,64,45,30.29,30.17,9,2,9,0.01
2013-7-15,77,68,60,63,59,51,85,73,56,30.26,30.18,6,1,7,0.04
2013-7-16,80,68,52,56,49,41,86,55,26,30.27,30.17,14,2,14,0.01
2013-7-17,85,72,54,58,50,45,74,48,29,30.27,30.17,9,1,9,0.00
2013-7-18,90,70,61,58,52,46,83,57,28,30.25,30.16,15,2,15,0.47
2013-7-19,81,70,59,62,56,53,81,64,44,30.26,30.15,12,2,12,0.00
2013-7-20,88,70,57,60,53,47,81,58,36,30.16,30.07,10,2,14,0.00
2013-7-21,83,70,54,60,53,44,78,55,36,30.08,30.01,13,2,13,0.00
2013-7-22,90,77,60,55,44,23,49,33,8,30.10,30.01,15,2,15,0.00
2013-7-23,90,76,64,54,43,20,58,34,11,30.24,30.06,15,2,15,0.00
2013-7-24,85,70,61,62,54,49,76,58,39,30.27,30.12,21,2,21,0.07
2013-7-25,78,65,56,59,53,49,82,66,48,30.29,30.13,14,1,14,0.06
2013-7-26,83,70,54,55,48,42,77,50,28,30.31,30.20,13,2,13,0.00
2013-7-27,75,65,55,56,50,41,86,60,43,30.22,30.12,10,2,10,0.12
2013-7-28,69,61,56,62,56,53,91,85,73,30.15,30.02,3,1,8,0.09
2013-7-29,72,63,55,63,54,47,90,73,46,30.23,30.03,12,1,12,0.04
2013-7-30,83,70,59,56,51,47,76,52,32,30.29,30.22,12,2,12,0.00
2013-7-31,86,70,57,60,51,45,77,53,28,30.34,30.23,11,1,11,0.19
2013-8-1,90,71,55,58,51,45,79,52,28,30.28,30.08,19,1,19,0.01
2013-8-2,90,74,59,64,51,44,73,48,24,30.15,30.05,10,2,10,0.05
2013-8-3,91,70,58,64,54,48,87,62,25,30.31,30.13,16,2,16,0.39
2013-8-4,87,70,54,60,51,44,82,55,23,30.26,30.15,13,1,13,0.00
2013-8-5,88,72,61,55,48,41,57,43,28,30.18,30.09,10,2,11,0.00
2013-8-6,89,72,62,54,44,38,53,38,24,30.13,30.07,13,2,13,0.02
2013-8-7,73,65,56,54,49,39,73,56,41,30.18,30.09,7,1,7,0.00
2013-8-8,72,63,52,57,51,46,81,67,48,30.23,30.10,9,1,9,0.05
2013-8-9,77,63,51,54,48,43,83,61,37,30.24,30.18,14,2,14,0.00
2013-8-10,84,68,52,50,44,40,69,46,25,30.26,30.16,9,1,9,0.00
2013-8-11,83,68,60,55,47,41,74,47,29,30.27,30.19,10,2,10,0.10
2013-8-12,82,64,53,56,50,44,80,60,34,30.31,30.19,11,2,11,0.21
2013-8-13,75,64,52,53,47,43,74,56,41,30.28,30.19,13,1,13,0.00
2013-8-14,81,64,50,57,48,42,79,57,32,30.26,30.17,16,1,16,0.18
2013-8-15,81,66,53,54,45,38,66,47,26,30.25,30.15,8,1,8,0.00
2013-8-16,88,72,55,50,43,32,61,39,16,30.24,30.18,8,1,8,0.00
2013-8-17,90,74,60,48,39,30,51,31,13,30.23,30.11,8,1,8,0.00
2013-8-18,94,75,61,47,39,32,40,29,17,30.22,30.13,11,2,11,0.00
2013-8-19,94,76,61,49,41,36,46,30,18,30.20,30.11,9,1,9,0.00
2013-8-20,98,79,63,47,38,30,38,25,11,30.14,30.08,9,1,9,0.00
2013-8-21,91,77,66,50,44,37,48,32,21,30.23,30.13,8,1,8,0.00
2013-8-22,83,70,59,60,52,46,67,53,39,30.28,30.18,11,1,11,0.01
2013-8-23,85,72,59,55,51,45,73,51,34,30.25,30.05,16,2,16,0.01
2013-8-24,87,72,58,56,48,44,62,45,30,30.20,30.09,12,2,12,0.02
2013-8-25,86,73,60,55,48,44,57,43,25,30.22,30.16,10,2,10,0.00
2013-8-26,90,74,61,58,52,48,71,49,28,30.23,30.17,10,2,10,0.04
2013-8-27,90,75,60,58,52,49,73,48,28,30.22,30.14,11,2,11,0.00
2013-8-28,91,77,63,53,47,40,57,37,24,30.21,30.15,10,2,10,0.00
2013-8-29,92,78,64,49,45,40,44,32,19,30.25,30.18,15,2,15,0.00
2013-8-30,93,77,64,52,46,42,47,36,21,30.26,30.17,11,2,11,0.00
2013-8-31,92,74,62,58,47,43,69,40,21,30.21,30.14,16,2,16,0.06
2013-9-1,77,69,60,57,52,45,69,56,46,30.26,30.18,10,1,10,0.00
2013-9-2,89,72,57,57,50,43,74,49,28,30.20,30.12,9,1,9,0.00
2013-9-3,90,78,64,56,49,45,65,39,25,30.23,30.14,10,2,10,0.02
2013-9-4,91,73,63,56,50,47,66,46,24,30.28,30.20,11,1,16,0.02
2013-9-5,90,75,62,56,50,46,64,44,29,30.28,30.20,8,1,8,0.01
2013-9-6,93,78,67,52,46,41,46,34,19,30.24,30.14,13,2,13,0.00
2013-9-7,90,76,62,51,46,42,50,35,24,30.20,30.12,11,1,11,0.00
2013-9-8,86,73,60,48,45,40,50,38,24,30.13,30.00,19,2,19,0.00
2013-9-9,82,66,58,58,51,45,90,62,34,30.13,30.01,13,2,13,0.74
2013-9-10,64,59,56,58,55,53,91,88,79,30.24,30.10,5,0,5,0.43
2013-9-11,61,58,57,59,56,55,94,93,90,30.26,30.21,10,1,10,2.37
2013-9-12,60,58,56,59,56,55,96,95,94,30.32,30.26,9,2,9,2.11
2013-10-13,57,51,37,42,40,31,83,66,57,30.13,29.93,7,1,7,0.00
2013-10-14,53,46,40,42,36,31,81,68,55,30.15,29.87,10,1,10,0.01
2013-10-15,43,38,35,32,28,25,80,67,54,30.24,30.14,7,1,7,0.00
2013-10-16,50,38,28,32,27,22,80,63,46,30.16,30.01,8,1,8,0.01
2013-10-17,47,41,34,32,28,22,80,59,48,30.10,30.03,8,1,8,0.01
2013-10-18,41,35,31,33,29,25,88,79,68,30.15,30.06,7,1,7,0.19
2013-10-19,58,47,31,36,26,20,82,46,29,30.09,29.94,13,2,13,0.00
2013-10-20,50,42,33,35,29,22,87,62,34,30.11,29.93,14,1,14,0.09
2013-10-21,55,42,29,41,29,25,86,63,36,30.15,30.08,12,2,12,0.02
2013-10-22,59,48,37,36,30,24,66,50,38,30.21,30.13,9,1,9,0.00
2013-10-23,62,48,40,36,30,24,67,50,34,30.22,30.12,7,1,7,0.00
2013-10-24,52,41,32,38,32,26,82,71,59,30.23,30.18,5,1,5,0.00
2013-10-25,65,48,35,42,31,26,83,55,31,30.24,30.12,5,1,5,0.00
2013-10-26,57,45,36,37,30,24,66,55,43,30.31,30.14,5,1,7,0.00
2013-10-27,65,53,40,32,26,21,62,36,24,30.14,29.92,10,1,10,0.00
2013-10-28,50,36,31,30,27,24,86,72,37,30.05,29.93,10,1,10,0.02
2013-10-29,37,34,31,32,30,28,87,85,83,30.01,29.89,3,0,3,0.01
2013-10-30,42,36,30,36,31,26,88,84,72,29.91,29.84,8,1,8,0.34
2013-10-31,50,41,33,30,24,21,76,52,34,29.92,29.81,24,4,24,0.00
2013-11-1,49,41,33,34,26,19,64,54,33,30.20,29.91,11,2,11,0.00
2013-11-2,60,42,29,33,22,13,69,47,18,30.19,29.81,13,1,13,0.00
2013-11-3,64,50,38,27,21,13,56,33,21,29.85,29.66,16,2,16,0.00
2013-11-4,39,34,30,26,20,15,78,57,43,30.00,29.84,6,1,10,0.00
2013-11-5,41,32,25,24,14,2,66,48,26,30.09,29.89,12,1,12,0.00
2013-11-6,48,38,28,19,14,5,49,38,29,30.27,30.06,22,3,22,0.00
2013-11-7,52,41,30,28,22,16,59,47,35,30.31,29.99,6,1,6,0.00
2013-11-8,62,52,40,24,21,14,48,30,20,30.04,29.83,19,3,19,0.00
2013-11-9,56,47,39,32,25,19,59,44,29,30.22,30.03,14,1,14,0.00
2013-11-10,63,48,37,36,26,22,63,45,23,30.21,30.15,12,1,12,0.00
2013-11-11,66,44,31,31,24,19,78,50,21,30.52,30.18,11,2,11,0.00
2013-11-12,54,42,32,33,28,23,75,58,41,30.51,30.32,6,1,6,0.00
2013-11-13,65,52,37,28,20,13,59,30,17,30.32,30.04,14,1,14,0.00
2013-11-14,53,46,40,33,27,20,61,48,29,30.09,29.80,12,1,12,0.00
2013-11-15,57,47,38,31,20,12,62,36,21,29.80,29.56,22,4,22,0.00
2013-11-16,51,41,35,27,22,16,59,45,29,29.62,29.41,22,3,22,0.00
2013-11-17,50,39,32,25,18,13,73,44,25,30.05,29.60,26,3,26,0.00
2013-11-18,59,42,30,23,17,12,58,40,17,30.12,30.02,15,1,15,0.00
2013-11-19,53,46,37,27,21,12,50,37,27,30.02,29.79,9,1,14,0.00
2013-11-20,55,46,33,29,24,20,61,43,32,30.00,29.82,14,2,14,0.00
2013-11-21,32,18,14,22,11,7,78,73,62,30.40,30.00,6,1,6,0.00
2013-11-22,37,27,17,23,17,10,75,66,56,30.46,30.33,4,0,4,0.08
2013-11-23,35,28,24,23,18,16,76,67,56,30.45,30.20,6,0,6,0.06
2013-11-24,42,31,22,30,22,15,80,69,35,30.20,29.94,9,0,9,0.01
2013-11-25,41,35,29,25,22,15,70,59,36,30.24,30.01,9,1,9,0.00
2013-11-26,47,34,26,29,22,19,74,61,42,30.30,30.18,8,1,8,0.00
2013-11-27,56,42,29,31,23,18,65,48,30,30.19,30.03,7,1,7,0.00
2013-11-28,46,36,30,29,23,19,68,60,48,30.18,30.09,7,0,7,0.00
2013-11-29,56,46,34,25,22,17,68,40,24,30.15,30.07,14,3,14,0.00
2013-11-30,55,45,37,24,18,15,43,35,25,30.15,30.10,12,2,12,0.00
2013-12-1,50,45,35,25,20,15,48,38,31,30.13,29.85,23,3,23,0.00
2013-12-2,54,48,43,25,22,19,45,37,28,29.88,29.59,24,6,24,0.00
2013-12-3,51,34,11,30,18,4,76,54,33,29.75,29.57,20,3,20,0.00
2013-12-4,13,8,3,4,1,-5,77,71,67,29.95,29.70,5,0,5,0.00
2013-12-5,7,2,-5,-2,-6,-13,72,68,61,29.98,29.87,3,0,4,0.04
2013-12-6,9,3,-3,0,-6,-11,72,68,64,30.06,29.97,5,0,5,0.01
2013-12-7,10,5,1,2,-3,-7,70,68,65,30.04,29.71,6,1,6,0.00
2013-12-8,18,9,0,9,1,-8,73,70,65,29.93,29.64,6,1,6,0.05
2013-12-9,26,13,-1,10,1,-8,74,61,39,30.00,29.88,28,2,28,0.04
2013-12-10,41,28,18,16,9,2,61,45,32,30.15,29.82,27,4,27,0.02
2013-12-11,28,22,12,17,11,5,75,64,49,30.21,30.15,6,1,6,0.00
2013-12-12,48,36,26,22,13,8,49,40,27,30.20,29.92,8,1,8,0.00
2013-12-13,46,38,30,19,15,9,57,40,26,30.09,29.84,17,1,17,0.00
2013-12-14,39,30,22,20,15,12,67,54,40,30.18,30.09,7,1,7,0.00
2013-12-15,52,43,32,24,18,12,50,37,24,30.12,30.03,22,4,22,0.00
2013-12-16,55,47,38,20,16,9,36,28,18,30.20,30.04,27,6,27,0.00
2013-12-17,54,45,35,23,18,13,44,33,24,30.24,30.05,12,2,12,0.00
2013-12-18,57,48,41,26,18,14,35,30,20,30.05,29.77,6,1,6,0.00
2013-12-19,48,35,17,26,19,12,81,54,33,29.83,29.60,14,2,14,0.00
2013-12-20,28,21,17,21,16,12,80,78,74,29.82,29.64,4,1,6,0.00
2013-12-21,31,25,19,23,18,13,79,76,67,29.86,29.56,5,0,6,0.00
2013-12-22,33,26,18,22,17,12,80,69,50,30.12,29.85,13,1,13,0.09
2013-12-23,37,27,15,25,18,9,79,70,58,30.15,30.00,9,1,9,0.01
2013-12-24,48,37,24,30,18,6,61,46,30,30.19,29.91,27,4,27,0.00
2013-12-25,41,32,23,15,10,5,49,40,25,30.27,30.11,14,2,14,0.00
2013-12-26,49,40,32,16,12,5,46,32,22,30.22,30.10,16,2,16,0.00
2013-12-27,54,41,32,27,20,14,50,43,32,30.21,30.02,5,0,5,0.00
2013-12-28,57,40,22,24,20,15,75,47,24,30.13,29.88,14,2,14,0.00
2013-12-29,39,26,16,21,14,9,77,62,32,30.13,29.83,29,2,29,0.04
2013-12-30,42,35,26,18,13,10,53,41,30,30.12,29.89,15,2,15,0.00
2013-12-31,51,42,34,25,19,14,49,41,33,30.03,29.90,18,2,18,0.00
2014-1-1,41,33,22,29,21,15,77,63,45,30.20,29.87,17,2,17,0.00
2014-1-2,43,31,21,24,18,14,76,59,39,30.15,29.96,13,1,13,0.00